Tropical Cyclones
[Index]
Main Index Home Page Stock Weather Photos Extreme Storms Discussion Storm News and Storm Chasing Reports Tropical Cyclones / Hurricanes / Typhoons Weather Data and Links Wild Fires / Bushfires Weather Observation Techniques Weather Picture Catalogue Tornado Pictures and Reports Stock Video Footage and DVDs for sale
Season 2010-2011 Tropical Cyclone ATU Track Map
Season 2010-2011 Summaries: [BoM-AU] [JTWC-AU] [JTWC-SIO] [JTWC-SPAC] [JTWC-SH]
<<- Previous TC | JTWC 2010-2011 Season | Next TC ->>

click for intensity scale information  Lat/long Grid: Show Hide

 Date Labels: Show Hide

Joint Typhoon Warning Centre Cyclone Data

Name: ATU

17 Feb 2011 00:00 UTC to 25 Feb 2011 06:00 UTC

    date/time    lat    long     hPa   cat  kts
2011-02-17 00   13.5   170.7    1007         20          
2011-02-17 06   13.8   170.3    1007         20          
2011-02-17 12   14.0   169.9    1007         20          
2011-02-17 18   14.1   169.5    1004         25          
2011-02-18 00   14.3   169.2    1004         25          
2011-02-18 06   14.8   169.3    1000         30          
2011-02-18 12   15.2   169.3     996         35          
2011-02-18 18   15.5   169.3     996         35          
2011-02-19 00   15.9   169.1     989    1    45          
2011-02-19 06   16.2   168.9     985    1    50          
2011-02-19 06   16.2   168.9     985    1    50          
2011-02-19 12   16.5   168.9     982    2    55          
2011-02-19 12   16.5   168.9     982    2    55          
2011-02-19 18   16.7   169.1     978    2    60          
2011-02-19 18   16.7   169.1     978    2    60          
2011-02-20 00   16.8   169.3     967    3    75          
2011-02-20 00   16.8   169.3     967    3    75          
2011-02-20 00   16.8   169.3     967    3    75          
2011-02-20 06   17.0   169.5     956    3    90          
2011-02-20 06   17.0   169.5     956    3    90          
2011-02-20 06   17.0   169.5     956    3    90          
2011-02-20 12   17.2   169.6     948    4   100          
2011-02-20 12   17.2   169.6     948    4   100          
2011-02-20 12   17.2   169.6     948    4   100          
2011-02-20 18   17.5   169.7     937    4   115          
2011-02-20 18   17.5   169.7     937    4   115          
2011-02-20 18   17.5   169.7     937    4   115          
2011-02-21 00   17.9   169.9     941    4   110          
2011-02-21 00   17.9   169.9     941    4   110          
2011-02-21 00   17.9   169.9     941    4   110          
2011-02-21 06   18.5   170.2     944    4   105          
2011-02-21 06   18.5   170.2     944    4   105          
2011-02-21 06   18.5   170.2     944    4   105          
2011-02-21 12   19.1   170.6     948    4   100          
2011-02-21 12   19.1   170.6     948    4   100          
2011-02-21 12   19.1   170.6     948    4   100          
2011-02-21 18   19.9   171.2     948    4   100          
2011-02-21 18   19.9   171.2     948    4   100          
2011-02-21 18   19.9   171.2     948    4   100          
2011-02-22 00   21.2   171.8     952    3    95          
2011-02-22 00   21.2   171.8     952    3    95          
2011-02-22 00   21.2   171.8     952    3    95          
2011-02-22 06   22.6   172.1     952    3    95          
2011-02-22 06   22.6   172.1     952    3    95          
2011-02-22 06   22.6   172.1     952    3    95          
2011-02-22 12   23.9   172.7     952    3    95          
2011-02-22 12   23.9   172.7     952    3    95          
2011-02-22 12   23.9   172.7     952    3    95          
2011-02-22 18   25.4   173.7     959    3    90          
2011-02-22 18   25.4   173.7     959    3    90          
2011-02-22 18   25.4   173.7     959    3    90          
2011-02-23 00   26.9   174.8     963    3    80          
2011-02-23 00   26.9   174.8     963    3    80          
2011-02-23 00   26.9   174.8     963    3    80          
2011-02-23 06   28.5   176.4     967    3    75          
2011-02-23 06   28.5   176.4     967    3    75          
2011-02-23 06   28.5   176.4     967    3    75          
2011-02-23 12   30.0   177.8     970    2    70          
2011-02-23 12   30.0   177.8     970    2    70          
2011-02-23 18   31.3   179.4     978    2    60          
2011-02-23 18   31.3   179.4     978    2    60          
2011-02-24 00   32.4   178.8W    985    1    50          
2011-02-24 06   33.2   176.9W    989    1    45          
2011-02-24 12   33.8   175.3W    993    1    40          
2011-02-24 18   34.1   173.8W    996         35          
2011-02-25 00   34.7   172.4W    996         35          
2011-02-25 06   35.8   171.4W    996         35          
Winds are 1-min average.

Tropical cyclone tracks developed by Michael Bath using data from the Joint Typhoon Warning Centre Best Tracks and Google Maps.


[Australian Severe Weather index] [Copyright Notice] [Email Contacts] [Search This Site] [Privacy Policy]
Document: tropical_cyclone_atu.htm Updated: 28 June 2017